Time;durP1;ratioP1;P1;durP2;ratioP2;P2;SDS_P1;SDS_P2;PMS_P1;PMS_P2;Temp;Humidity;BMP_temperature;BMP_pressure;BME280_temperature;BME280_humidity;BME280_pressure;Samples;Min_cycle;Max_cycle;Signal;HPM_P1;HPM_P2
2022/09/25 00:00:35;;;;;;;19.58;6.10;;;7.60;99.90;;;;;;5102419;28;20151;-83
2022/09/25 00:03:02;;;;;;;14.77;4.65;;;7.60;99.90;;;;;;5068334;28;20125;-84
2022/09/25 00:05:28;;;;;;;10.95;4.60;;;7.60;99.90;;;;;;5103070;28;20112;-84
2022/09/25 00:07:55;;;;;;;14.80;4.97;;;7.60;99.90;;;;;;5107113;28;20032;-83
2022/09/25 00:10:24;;;;;;;11.32;5.22;;;7.70;99.90;;;;;;5092329;28;20058;-84
2022/09/25 00:12:50;;;;;;;16.67;5.03;;;7.70;99.90;;;;;;5080376;28;20043;-84
2022/09/25 00:15:17;;;;;;;20.80;6.50;;;7.80;99.90;;;;;;5124925;27;20055;-83
2022/09/25 00:17:43;;;;;;;12.32;5.35;;;7.80;99.90;;;;;;5097888;28;20453;-83
2022/09/25 00:20:09;;;;;;;17.95;5.45;;;7.80;99.90;;;;;;5082430;28;20134;-83
2022/09/25 00:22:35;;;;;;;16.45;5.13;;;7.90;99.90;;;;;;5104706;28;20050;-84
2022/09/25 00:25:01;;;;;;;17.25;5.15;;;7.90;99.90;;;;;;5120729;28;20047;-83
2022/09/25 00:27:27;;;;;;;12.77;5.10;;;8.00;99.90;;;;;;5107165;28;20055;-83
2022/09/25 00:29:53;;;;;;;12.35;4.53;;;7.90;99.90;;;;;;5094245;28;20111;-84
2022/09/25 00:32:18;;;;;;;12.65;4.53;;;7.90;99.90;;;;;;5098176;28;20122;-83
2022/09/25 00:34:44;;;;;;;12.80;4.45;;;7.90;99.90;;;;;;5104660;28;20431;-83
2022/09/25 00:37:10;;;;;;;17.17;5.00;;;7.80;99.90;;;;;;5101107;28;20530;-82
2022/09/25 00:39:36;;;;;;;13.55;4.90;;;7.70;99.90;;;;;;5102817;28;20043;-84
2022/09/25 00:42:02;;;;;;;13.68;4.75;;;7.70;99.90;;;;;;5100921;28;20122;-83
2022/09/25 00:44:57;;;;;;;15.95;4.65;;;7.70;99.90;;;;;;5118382;28;20047;-83
2022/09/25 00:47:59;;;;;;;15.52;4.90;;;7.70;99.90;;;;;;5106211;28;20046;-83
2022/09/25 00:50:47;;;;;;;13.25;4.55;;;7.60;99.90;;;;;;5121568;28;20051;-83
2022/09/25 00:53:36;;;;;;;14.27;4.57;;;7.50;99.90;;;;;;5118917;28;20046;-83
2022/09/25 00:56:04;;;;;;;19.90;5.05;;;7.50;99.90;;;;;;5093606;28;20040;-83
2022/09/25 00:58:32;;;;;;;12.25;5.03;;;7.50;99.90;;;;;;5083257;27;20065;-83
2022/09/25 01:00:58;;;;;;;10.63;4.70;;;7.60;99.90;;;;;;5113392;27;20933;-83
2022/09/25 01:03:26;;;;;;;24.73;4.70;;;7.60;99.90;;;;;;5107220;27;20084;-83
2022/09/25 01:05:53;;;;;;;15.38;4.88;;;7.70;99.90;;;;;;5123331;27;20043;-82
2022/09/25 01:08:22;;;;;;;13.35;4.35;;;7.70;99.90;;;;;;5111532;27;20051;-82
2022/09/25 01:10:48;;;;;;;13.85;4.80;;;7.60;99.90;;;;;;5114091;27;20074;-82
2022/09/25 01:13:15;;;;;;;15.80;4.35;;;7.60;99.90;;;;;;5121610;27;20650;-82
2022/09/25 01:15:52;;;;;;;16.08;4.38;;;7.60;99.90;;;;;;5106522;27;20060;-83
2022/09/25 01:18:30;;;;;;;13.13;4.95;;;7.60;99.90;;;;;;5102570;28;20073;-83
2022/09/25 01:21:18;;;;;;;11.63;4.15;;;7.70;99.90;;;;;;5100687;27;20081;-83
2022/09/25 01:24:03;;;;;;;14.98;4.45;;;7.70;99.90;;;;;;5127805;27;20048;-83
2022/09/25 01:26:53;;;;;;;14.48;4.20;;;7.90;99.90;;;;;;5121621;27;20043;-83
2022/09/25 01:29:40;;;;;;;14.02;4.90;;;7.70;99.90;;;;;;5101813;27;20052;-83
2022/09/25 01:32:09;;;;;;;;;;;7.70;99.90;;;;;;5118544;27;20062;-83
2022/09/25 01:34:57;;;;;;;10.43;3.83;;;7.70;99.90;;;;;;5115187;27;20000;-83
2022/09/25 01:37:29;;;;;;;10.93;4.18;;;7.70;99.90;;;;;;5121836;27;20412;-83
2022/09/25 01:40:13;;;;;;;11.15;3.40;;;7.70;99.90;;;;;;5106777;28;20040;-83
2022/09/25 01:42:48;;;;;;;14.50;4.45;;;7.80;99.90;;;;;;5105730;27;20055;-83
2022/09/25 01:45:31;;;;;;;17.42;4.00;;;7.70;99.90;;;;;;5128058;27;20043;-83
2022/09/25 01:48:00;;;;;;;9.77;3.72;;;7.70;99.90;;;;;;5100456;28;20047;-83
2022/09/25 01:50:33;;;;;;;19.23;3.67;;;7.60;99.90;;;;;;5099524;27;20111;-84
2022/09/25 01:53:03;;;;;;;11.52;3.70;;;7.60;99.90;;;;;;5126330;27;20035;-84
2022/09/25 01:55:38;;;;;;;11.38;4.00;;;7.60;99.90;;;;;;5110780;27;20051;-84
2022/09/25 01:58:19;;;;;;;12.07;4.22;;;7.50;99.90;;;;;;5125996;27;20472;-83
2022/09/25 02:00:50;;;;;;;13.95;3.92;;;7.40;99.90;;;;;;5123451;27;20442;-83
2022/09/25 02:03:24;;;;;;;11.55;4.15;;;7.50;99.90;;;;;;5129278;27;20043;-82
2022/09/25 02:06:00;;;;;;;14.18;4.72;;;7.30;99.90;;;;;;5110384;27;20064;-81
2022/09/25 02:09:07;;;;;;;9.88;3.67;;;7.20;99.90;;;;;;5115761;27;20056;-81
2022/09/25 02:11:42;;;;;;;15.70;3.80;;;7.20;99.90;;;;;;5024818;28;20420;-81
2022/09/25 02:14:17;;;;;;;14.27;4.30;;;7.30;99.90;;;;;;5095791;27;20044;-82
2022/09/25 02:16:47;;;;;;;13.18;3.78;;;7.20;99.90;;;;;;5093450;28;20053;-82
2022/09/25 02:22:07;;;;;;;;;;;7.30;99.90;;;;;;5097676;28;20044;-83
2022/09/25 02:24:55;;;;;;;8.23;3.30;;;7.30;99.90;;;;;;5093057;28;19924;-83
2022/09/25 02:27:23;;;;;;;12.43;3.88;;;7.30;99.90;;;;;;5091348;28;20056;-82
2022/09/25 02:29:50;;;;;;;15.32;3.90;;;7.30;99.90;;;;;;5115641;27;20054;-83
2022/09/25 02:32:20;;;;;;;12.02;3.67;;;7.30;99.90;;;;;;5103100;27;20053;-83
2022/09/25 02:34:46;;;;;;;12.88;3.65;;;7.40;99.90;;;;;;5093059;28;20400;-83
2022/09/25 02:37:16;;;;;;;13.98;3.85;;;7.30;99.90;;;;;;5093019;28;20054;-83
2022/09/25 02:39:52;;;;;;;13.48;4.55;;;7.40;99.90;;;;;;5113129;27;20091;-83
2022/09/25 02:42:47;;;;;;;12.70;3.90;;;7.40;99.90;;;;;;5110828;27;20058;-82
2022/09/25 02:45:24;;;;;;;15.88;4.40;;;7.40;99.90;;;;;;5107217;27;20077;-83
2022/09/25 02:48:22;;;;;;;12.65;3.65;;;7.40;99.90;;;;;;5098943;27;20108;-83
2022/09/25 02:51:04;;;;;;;15.05;4.80;;;7.40;99.90;;;;;;5097070;27;20056;-83
2022/09/25 02:53:45;;;;;;;12.18;4.32;;;7.40;99.90;;;;;;5109694;28;20073;-83
2022/09/25 02:56:23;;;;;;;12.63;4.20;;;7.40;99.90;;;;;;5098582;28;20077;-84
2022/09/25 02:58:52;;;;;;;13.63;4.50;;;7.40;99.90;;;;;;5091985;28;20538;-83
2022/09/25 03:01:21;;;;;;;12.98;5.13;;;7.30;99.90;;;;;;5090193;28;20047;-84
2022/09/25 03:03:51;;;;;;;11.93;4.22;;;7.30;99.90;;;;;;5090508;28;20075;-83
2022/09/25 03:06:18;;;;;;;11.27;3.85;;;7.30;99.90;;;;;;5105809;28;20063;-84
2022/09/25 03:08:48;;;;;;;11.82;4.00;;;7.20;99.90;;;;;;5092042;28;20128;-84
2022/09/25 03:11:18;;;;;;;10.50;3.70;;;7.30;99.90;;;;;;5091934;28;20231;-84
2022/09/25 03:13:44;;;;;;;7.63;4.07;;;7.20;99.90;;;;;;5118092;27;20566;-84
2022/09/25 03:16:29;;;;;;;12.85;4.68;;;7.20;99.90;;;;;;5126284;27;20055;-83
2022/09/25 03:18:55;;;;;;;17.80;4.50;;;7.20;99.90;;;;;;5117942;27;20082;-85
2022/09/25 03:21:20;;;;;;;15.75;4.40;;;7.20;99.90;;;;;;5103378;27;20168;-84
2022/09/25 03:23:46;;;;;;;14.43;4.20;;;7.40;99.90;;;;;;5105617;28;20092;-84
2022/09/25 03:26:12;;;;;;;14.95;4.40;;;7.20;99.90;;;;;;5105843;27;20100;-84
2022/09/25 03:28:38;;;;;;;14.32;4.55;;;7.20;99.90;;;;;;5105301;27;20047;-84
2022/09/25 03:31:10;;;;;;;12.73;4.50;;;7.00;99.90;;;;;;5107197;27;20058;-83
2022/09/25 03:33:40;;;;;;;18.80;4.68;;;6.90;99.90;;;;;;5123668;27;20504;-84
2022/09/25 03:36:24;;;;;;;13.60;4.30;;;7.00;99.90;;;;;;5116804;27;20148;-83
2022/09/25 03:38:52;;;;;;;18.38;4.80;;;6.90;99.90;;;;;;5118883;27;20047;-83
2022/09/25 03:41:20;;;;;;;19.25;4.95;;;6.80;99.90;;;;;;5115496;27;20084;-84
2022/09/25 03:43:50;;;;;;;13.57;4.57;;;6.80;99.90;;;;;;5125510;27;20133;-84
2022/09/25 03:46:21;;;;;;;14.38;4.60;;;6.80;99.90;;;;;;5118671;27;20087;-85
2022/09/25 03:48:47;;;;;;;10.15;4.55;;;6.70;99.90;;;;;;5094606;28;20055;-84
2022/09/25 03:51:13;;;;;;;15.82;4.85;;;6.70;99.90;;;;;;5123978;27;20519;-85
2022/09/25 03:53:39;;;;;;;11.52;4.75;;;6.70;99.90;;;;;;5127859;27;20070;-85
2022/09/25 03:56:09;;;;;;;11.55;4.47;;;6.80;99.90;;;;;;5118727;27;20039;-84
2022/09/25 03:58:35;;;;;;;17.17;5.10;;;6.80;99.90;;;;;;5127051;27;20043;-84
2022/09/25 04:01:01;;;;;;;11.65;4.18;;;6.80;99.90;;;;;;5126427;27;20050;-84
2022/09/25 04:03:29;;;;;;;14.52;4.78;;;6.90;99.90;;;;;;5125419;27;20046;-84
2022/09/25 04:05:57;;;;;;;14.88;4.47;;;6.90;99.90;;;;;;5100128;27;20100;-84
2022/09/25 04:08:25;;;;;;;10.32;4.07;;;7.00;99.90;;;;;;5097919;27;21335;-84
2022/09/25 04:10:55;;;;;;;9.23;3.85;;;7.30;99.90;;;;;;5098377;28;20051;-84
2022/09/25 04:13:22;;;;;;;11.25;4.50;;;7.10;99.90;;;;;;5117919;27;20055;-84
2022/09/25 04:15:48;;;;;;;16.30;4.68;;;7.20;99.90;;;;;;5095347;28;20049;-84
2022/09/25 04:18:14;;;;;;;16.05;4.60;;;7.40;99.90;;;;;;5113961;28;20047;-84
2022/09/25 04:20:40;;;;;;;19.02;5.18;;;7.40;99.90;;;;;;5112179;28;20054;-84
2022/09/25 04:23:06;;;;;;;14.48;4.65;;;7.40;99.90;;;;;;5126395;28;20051;-84
2022/09/25 04:25:32;;;;;;;10.45;4.03;;;7.50;99.90;;;;;;5093127;28;20054;-83
2022/09/25 04:27:59;;;;;;;10.77;4.20;;;7.50;99.90;;;;;;5122130;28;20122;-84
2022/09/25 04:30:26;;;;;;;12.65;3.90;;;7.60;99.90;;;;;;5111070;27;20042;-84
2022/09/25 04:35:36;;;;;;;8.20;3.55;;;7.70;99.90;;;;;;5124237;27;20429;-84
2022/09/25 04:38:02;;;;;;;12.88;4.00;;;7.70;99.90;;;;;;5116480;27;20119;-84
2022/09/25 04:40:28;;;;;;;17.88;3.55;;;7.60;99.90;;;;;;5087471;28;20122;-84
2022/09/25 04:42:59;;;;;;;10.38;2.50;;;7.50;99.90;;;;;;5123962;27;20036;-84
2022/09/25 04:45:26;;;;;;;4.38;2.45;;;7.40;99.90;;;;;;5087639;28;20086;-84
2022/09/25 04:47:53;;;;;;;5.47;2.47;;;7.20;99.90;;;;;;5131881;27;20211;-84
2022/09/25 04:50:20;;;;;;;6.15;2.92;;;7.10;99.90;;;;;;5132633;27;20487;-84
2022/09/25 04:52:46;;;;;;;9.40;3.10;;;7.00;99.90;;;;;;5114800;27;20117;-85
2022/09/25 04:55:11;;;;;;;13.82;3.67;;;6.90;99.90;;;;;;5115472;27;20070;-84
2022/09/25 04:57:38;;;;;;;15.18;4.57;;;6.80;99.90;;;;;;5115190;27;20108;-83
2022/09/25 05:00:05;;;;;;;11.48;4.00;;;6.70;99.90;;;;;;5122425;27;20116;-84
2022/09/25 05:02:31;;;;;;;8.80;3.47;;;6.70;99.90;;;;;;5116921;27;20044;-83
2022/09/25 05:04:57;;;;;;;14.50;3.72;;;6.60;99.90;;;;;;5130530;27;20035;-84
2022/09/25 05:07:22;;;;;;;11.35;3.83;;;6.50;99.90;;;;;;5104943;28;20127;-83
2022/09/25 05:09:48;;;;;;;15.95;4.63;;;6.40;99.90;;;;;;5082126;28;20493;-84
2022/09/25 05:12:14;;;;;;;20.55;5.78;;;6.30;99.90;;;;;;5087822;27;20132;-82
2022/09/25 05:14:42;;;;;;;14.70;6.18;;;6.40;99.90;;;;;;5093500;28;20098;-84
2022/09/25 05:17:10;;;;;;;12.82;4.68;;;6.30;99.90;;;;;;5091185;27;20593;-84
2022/09/25 05:19:36;;;;;;;13.65;5.50;;;6.30;99.90;;;;;;5120134;27;20496;-84
2022/09/25 05:22:02;;;;;;;8.85;4.65;;;6.30;99.90;;;;;;5114125;27;20417;-83
2022/09/25 05:24:30;;;;;;;13.38;4.97;;;6.30;99.90;;;;;;5127806;27;20096;-83
2022/09/25 05:26:56;;;;;;;15.98;5.15;;;6.30;99.90;;;;;;5095854;27;20407;-84
2022/09/25 05:29:22;;;;;;;16.55;5.38;;;6.20;99.90;;;;;;5123781;27;20039;-83
2022/09/25 05:31:48;;;;;;;13.07;4.80;;;6.20;99.90;;;;;;5125330;27;20107;-83
2022/09/25 05:34:15;;;;;;;10.00;4.85;;;6.30;99.90;;;;;;5114400;27;20039;-83
2022/09/25 05:36:41;;;;;;;15.45;5.78;;;6.20;99.90;;;;;;5094641;27;20131;-83
2022/09/25 05:39:09;;;;;;;14.75;5.18;;;6.20;99.90;;;;;;5082304;27;20055;-84
2022/09/25 05:41:35;;;;;;;11.55;5.28;;;6.20;99.90;;;;;;5090324;27;20055;-84
2022/09/25 05:44:08;;;;;;;12.32;5.50;;;6.20;99.90;;;;;;5090767;27;20090;-84
2022/09/25 05:46:34;;;;;;;12.93;5.13;;;6.20;99.90;;;;;;5095327;27;20109;-85
2022/09/25 05:49:00;;;;;;;13.32;5.50;;;6.30;99.90;;;;;;5115538;27;20504;-84
2022/09/25 05:51:26;;;;;;;16.42;4.97;;;6.30;99.90;;;;;;5130777;27;20039;-85
2022/09/25 05:53:53;;;;;;;11.73;5.15;;;6.40;99.90;;;;;;5114349;27;20353;-84
2022/09/25 05:56:19;;;;;;;14.98;5.60;;;6.50;99.90;;;;;;5127244;27;20507;-84
2022/09/25 05:58:47;;;;;;;12.73;5.65;;;6.60;99.90;;;;;;5090434;27;20044;-85
2022/09/25 06:01:13;;;;;;;13.07;5.43;;;6.80;99.90;;;;;;5113445;27;20507;-84
2022/09/25 06:03:38;;;;;;;12.15;5.05;;;6.90;99.90;;;;;;5110282;27;20055;-84
2022/09/25 06:06:04;;;;;;;12.85;5.18;;;6.80;99.90;;;;;;5131438;27;20035;-84
2022/09/25 06:08:31;;;;;;;11.65;4.30;;;6.90;99.90;;;;;;5112743;27;20046;-84
2022/09/25 06:10:57;;;;;;;13.52;4.90;;;6.90;99.90;;;;;;5114208;27;20039;-84
2022/09/25 06:13:26;;;;;;;12.52;4.82;;;6.90;99.90;;;;;;5118960;27;20055;-84
2022/09/25 06:15:52;;;;;;;13.60;4.53;;;6.90;99.90;;;;;;5128106;27;20559;-84
2022/09/25 06:18:23;;;;;;;9.05;4.60;;;7.00;99.90;;;;;;5122074;27;20075;-84
2022/09/25 06:20:50;;;;;;;19.23;4.97;;;7.00;99.90;;;;;;5104368;27;20499;-86
2022/09/25 06:23:17;;;;;;;11.10;4.30;;;7.10;99.90;;;;;;5123105;27;20050;-85
2022/09/25 06:25:43;;;;;;;16.17;5.38;;;7.20;99.90;;;;;;5119815;27;20047;-84
2022/09/25 06:28:11;;;;;;;10.27;4.30;;;7.20;99.90;;;;;;5099406;27;20931;-84
2022/09/25 06:30:37;;;;;;;9.80;3.90;;;7.40;99.90;;;;;;5117132;27;20042;-83
2022/09/25 06:33:08;;;;;;;15.23;3.90;;;7.40;99.90;;;;;;5119653;27;20039;-84
2022/09/25 06:35:39;;;;;;;11.75;4.05;;;7.40;99.90;;;;;;5103056;27;20047;-84
2022/09/25 06:38:04;;;;;;;10.68;3.92;;;7.40;99.90;;;;;;5094270;27;20039;-84
2022/09/25 06:40:31;;;;;;;10.73;3.63;;;7.50;99.90;;;;;;5079727;28;20035;-85
2022/09/25 06:42:58;;;;;;;14.13;3.88;;;7.60;99.90;;;;;;5117430;27;20084;-83
2022/09/25 06:45:25;;;;;;;9.57;3.85;;;7.60;99.90;;;;;;5112005;27;20043;-84
2022/09/25 06:47:56;;;;;;;16.63;7.47;;;7.70;99.90;;;;;;5094813;27;20080;-84
2022/09/25 06:50:30;;;;;;;14.13;8.05;;;7.80;99.90;;;;;;5089673;27;20071;-84
2022/09/25 06:52:59;;;;;;;15.13;7.45;;;7.90;99.90;;;;;;5100769;27;20047;-85
2022/09/25 06:55:48;;;;;;;14.23;6.55;;;7.90;99.90;;;;;;5108977;27;20059;-84
2022/09/25 06:58:19;;;;;;;13.05;4.97;;;8.00;99.90;;;;;;5116886;27;20369;-84
2022/09/25 07:00:52;;;;;;;11.98;4.43;;;8.10;99.90;;;;;;5127227;27;20039;-84
2022/09/25 07:06:13;;;;;;;10.57;3.03;;;8.20;99.90;;;;;;5110904;27;20055;-84
2022/09/25 07:08:44;;;;;;;9.15;3.10;;;8.30;99.90;;;;;;5095144;27;20083;-82
2022/09/25 07:11:14;;;;;;;10.13;2.67;;;8.40;99.90;;;;;;5126595;27;20047;-83
2022/09/25 07:13:45;;;;;;;9.85;2.90;;;8.40;99.90;;;;;;5093306;27;20047;-85
2022/09/25 07:16:14;;;;;;;7.60;2.78;;;8.50;99.90;;;;;;5117432;27;20143;-83
2022/09/25 07:18:40;;;;;;;5.60;2.72;;;8.50;99.90;;;;;;5094646;27;20505;-83
2022/09/25 07:21:14;;;;;;;9.52;2.70;;;8.60;99.90;;;;;;5128622;27;20053;-83
2022/09/25 07:23:41;;;;;;;7.60;2.95;;;8.70;99.90;;;;;;5097797;28;20051;-83
2022/09/25 07:26:11;;;;;;;10.85;3.15;;;8.60;99.90;;;;;;5117961;27;20487;-83
2022/09/25 07:28:38;;;;;;;7.95;2.53;;;9.00;99.90;;;;;;5127808;27;20095;-83
2022/09/25 07:31:15;;;;;;;7.15;2.58;;;9.00;99.90;;;;;;5126495;27;20043;-83
2022/09/25 07:33:41;;;;;;;9.73;2.67;;;9.10;99.90;;;;;;5140192;27;20039;-82
2022/09/25 07:36:08;;;;;;;9.25;2.42;;;9.20;99.90;;;;;;5102931;27;20058;-82
2022/09/25 07:38:35;;;;;;;7.68;2.03;;;9.20;99.90;;;;;;5100371;27;20046;-83
2022/09/25 07:41:05;;;;;;;7.70;2.50;;;9.30;99.90;;;;;;5111372;27;20078;-83
2022/09/25 07:43:35;;;;;;;9.35;2.25;;;9.40;99.90;;;;;;5129215;27;20055;-83
2022/09/25 07:46:01;;;;;;;12.43;2.10;;;9.40;99.90;;;;;;5111612;27;20481;-83
2022/09/25 07:48:29;;;;;;;8.65;1.75;;;9.50;99.90;;;;;;5109066;28;20131;-83
2022/09/25 07:50:58;;;;;;;6.63;2.42;;;9.60;99.90;;;;;;5125726;27;20039;-83
2022/09/25 07:53:24;;;;;;;8.70;3.25;;;9.70;99.90;;;;;;5128985;27;20522;-83
2022/09/25 07:55:50;;;;;;;8.35;1.90;;;9.90;99.90;;;;;;5106260;28;20039;-83
2022/09/25 07:58:18;;;;;;;12.75;2.88;;;9.90;99.90;;;;;;5120829;27;20039;-83
2022/09/25 08:00:44;;;;;;;7.25;1.67;;;9.90;99.90;;;;;;5106663;28;20066;-83
2022/09/25 08:03:10;;;;;;;9.95;2.30;;;10.10;99.90;;;;;;5121779;27;20046;-83
2022/09/25 08:05:36;;;;;;;11.50;2.42;;;10.10;99.90;;;;;;5122827;27;20068;-82
2022/09/25 08:08:02;;;;;;;8.07;1.52;;;10.20;99.90;;;;;;5126117;27;20047;-82
2022/09/25 08:10:28;;;;;;;10.75;2.92;;;10.30;99.90;;;;;;5119488;27;20054;-82
2022/09/25 08:12:55;;;;;;;11.77;2.22;;;10.40;99.90;;;;;;5092900;28;20048;-82
2022/09/25 08:15:22;;;;;;;12.73;5.75;;;10.50;99.90;;;;;;5097069;28;20101;-82
2022/09/25 08:17:47;;;;;;;4.80;1.60;;;10.60;99.90;;;;;;5080050;28;20048;-82
2022/09/25 08:20:13;;;;;;;6.30;1.73;;;10.70;99.90;;;;;;5092011;28;20503;-83
2022/09/25 08:22:39;;;;;;;6.25;1.75;;;10.70;99.90;;;;;;5073926;28;20043;-82
2022/09/25 08:25:05;;;;;;;4.75;1.25;;;10.80;99.90;;;;;;5108783;28;20815;-83
2022/09/25 08:27:31;;;;;;;6.55;1.85;;;10.90;99.90;;;;;;5091173;28;20065;-83
2022/09/25 08:29:57;;;;;;;5.38;1.55;;;11.00;99.90;;;;;;5090852;28;20493;-83
2022/09/25 08:32:23;;;;;;;5.57;1.08;;;11.40;99.90;;;;;;5091129;28;20396;-82
2022/09/25 08:34:48;;;;;;;4.50;1.40;;;11.80;99.90;;;;;;5107307;28;20067;-82
2022/09/25 08:37:15;;;;;;;5.32;1.65;;;12.10;99.90;;;;;;5108534;28;20039;-82
2022/09/25 08:39:42;;;;;;;6.80;1.08;;;12.30;99.90;;;;;;5094468;28;20112;-82
2022/09/25 08:42:18;;;;;;;5.22;0.90;;;12.30;99.90;;;;;;5105087;28;20052;-82
2022/09/25 08:49:00;;;;;;;3.88;1.10;;;12.40;99.90;;;;;;5077341;28;20148;-82
2022/09/25 08:50:23;;;;;;;8.38;1.60;;;12.20;99.90;;;;;;5108784;28;20058;-82
2022/09/25 08:52:54;;;;;;;6.18;2.03;;;12.10;99.90;;;;;;5107479;28;20086;-82
2022/09/25 08:58:23;;;;;;;6.82;1.27;;;12.10;99.90;;;;;;5097052;28;20602;-82
2022/09/25 09:00:52;;;;;;;7.50;1.50;;;12.20;99.90;;;;;;5106846;28;20043;-81
2022/09/25 09:03:18;;;;;;;5.13;1.58;;;12.40;99.90;;;;;;5108079;28;20057;-81
2022/09/25 09:05:47;;;;;;;6.13;1.90;;;12.70;99.90;;;;;;5094992;28;20043;-82
2022/09/25 09:08:24;;;;;;;5.70;1.70;;;12.90;99.90;;;;;;5099615;28;20055;-81
2022/09/25 09:11:04;;;;;;;6.38;1.10;;;12.90;99.90;;;;;;5090708;28;20051;-81
2022/09/25 09:13:47;;;;;;;9.55;1.58;;;12.90;99.90;;;;;;5118198;28;20057;-81
2022/09/25 09:16:33;;;;;;;10.25;1.85;;;12.90;99.90;;;;;;5129315;27;20086;-81
2022/09/25 09:19:03;;;;;;;5.95;1.00;;;13.20;99.90;;;;;;5105175;27;20043;-81
2022/09/25 09:21:54;;;;;;;6.93;1.00;;;13.50;99.90;;;;;;5130494;27;20365;-81
2022/09/25 09:24:45;;;;;;;4.38;1.00;;;13.70;99.90;;;;;;5101808;27;20058;-81
2022/09/25 09:27:35;;;;;;;3.05;0.80;;;13.80;99.90;;;;;;5094370;27;20063;-81
2022/09/25 09:30:19;;;;;;;5.47;1.00;;;14.00;99.90;;;;;;5119399;27;20637;-81
2022/09/25 09:33:04;;;;;;;3.60;0.70;;;14.40;99.90;;;;;;5107585;28;20051;-81
2022/09/25 09:35:29;;;;;;;4.10;0.80;;;14.60;99.90;;;;;;5106450;27;20115;-82
2022/09/25 09:38:36;;;;;;;3.55;0.60;;;14.60;99.90;;;;;;5115674;27;20039;-81
2022/09/25 09:41:32;;;;;;;5.27;1.13;;;14.40;99.90;;;;;;5100756;27;20463;-80
2022/09/25 09:44:11;;;;;;;5.90;1.10;;;13.90;99.90;;;;;;5119427;27;20496;-82
2022/09/25 09:46:42;;;;;;;2.65;0.70;;;13.50;99.90;;;;;;5125057;27;20051;-81
2022/09/25 09:49:38;;;;;;;3.80;0.90;;;13.10;99.90;;;;;;5110982;28;20510;-80
2022/09/25 09:52:42;;;;;;;3.70;0.60;;;12.90;99.90;;;;;;5124332;27;20115;-81
2022/09/25 09:55:38;;;;;;;6.85;1.05;;;12.80;99.90;;;;;;5131216;27;20039;-81
2022/09/25 09:58:10;;;;;;;2.60;0.57;;;12.90;99.90;;;;;;5132678;27;20055;-81
2022/09/25 10:00:38;;;;;;;2.53;0.70;;;12.90;99.90;;;;;;5125072;27;20050;-81
2022/09/25 10:03:24;;;;;;;5.15;0.85;;;12.90;99.90;;;;;;5139279;27;20070;-81
2022/09/25 10:05:54;;;;;;;3.95;0.70;;;12.90;99.90;;;;;;5094116;28;20051;-82
2022/09/25 10:08:19;;;;;;;4.70;0.70;;;12.90;99.90;;;;;;5095605;28;20075;-82
2022/09/25 10:10:52;;;;;;;3.65;0.80;;;13.00;99.90;;;;;;5124984;27;20086;-82
2022/09/25 10:13:22;;;;;;;4.25;0.57;;;13.10;99.90;;;;;;5110842;28;20055;-82
2022/09/25 10:15:59;;;;;;;2.55;0.60;;;13.20;99.90;;;;;;5093548;28;20059;-82
2022/09/25 10:18:30;;;;;;;5.00;0.93;;;13.30;99.90;;;;;;5122222;27;20054;-82
2022/09/25 10:21:06;;;;;;;3.72;0.73;;;13.40;99.90;;;;;;5126482;27;20055;-82
2022/09/25 10:23:38;;;;;;;4.95;0.77;;;13.60;99.90;;;;;;5110361;28;20051;-82
2022/09/25 10:26:27;;;;;;;3.58;0.82;;;13.60;99.90;;;;;;5118190;27;20047;-82
2022/09/25 10:28:56;;;;;;;5.35;0.65;;;13.80;99.90;;;;;;5125844;27;20039;-82
2022/09/25 10:31:23;;;;;;;4.15;0.82;;;13.90;99.90;;;;;;5131308;27;20051;-82
2022/09/25 10:34:00;;;;;;;3.22;0.70;;;14.10;99.90;;;;;;5097206;28;20032;-82
2022/09/25 10:36:44;;;;;;;6.63;0.93;;;14.20;99.90;;;;;;5120851;27;20095;-81
2022/09/25 10:39:35;;;;;;;5.20;1.00;;;14.20;99.90;;;;;;5123603;27;20053;-81
2022/09/25 10:42:07;;;;;;;3.00;0.80;;;14.10;99.90;;;;;;5120691;27;20075;-81
2022/09/25 10:44:37;;;;;;;3.85;0.80;;;14.30;99.90;;;;;;5128436;27;20050;-81
2022/09/25 10:50:15;;;;;;;2.08;0.60;;;14.80;99.90;;;;;;5110574;27;20048;-81
2022/09/25 10:52:51;;;;;;;6.30;0.93;;;15.00;99.90;;;;;;5128092;27;20047;-81
2022/09/25 10:55:29;;;;;;;6.95;0.93;;;15.20;99.90;;;;;;5112535;27;20043;-81
2022/09/25 10:58:25;;;;;;;1.70;0.57;;;15.30;99.90;;;;;;5117969;27;20111;-83
2022/09/25 11:00:56;;;;;;;2.63;0.95;;;15.50;99.90;;;;;;5113237;27;20061;-82
2022/09/25 11:03:39;;;;;;;3.85;0.70;;;15.50;99.90;;;;;;5129626;27;20737;-82
2022/09/25 11:06:31;;;;;;;2.92;0.63;;;15.50;99.90;;;;;;5118783;27;20047;-81
2022/09/25 11:09:00;;;;;;;4.53;0.63;;;15.70;99.90;;;;;;5106187;27;20047;-81
2022/09/25 11:11:26;;;;;;;4.60;0.65;;;15.70;99.90;;;;;;5106216;27;20059;-80
2022/09/25 11:13:56;;;;;;;4.03;0.50;;;15.70;99.90;;;;;;5078639;28;20114;-80
2022/09/25 11:16:51;;;;;;;4.50;0.75;;;15.50;99.90;;;;;;5100320;27;20126;-81
2022/09/25 11:19:23;;;;;;;2.00;0.63;;;15.50;99.90;;;;;;5111383;27;20108;-81
2022/09/25 11:21:48;;;;;;;3.80;0.70;;;15.60;99.90;;;;;;5130095;27;20047;-81
2022/09/25 11:24:40;;;;;;;3.78;0.98;;;16.40;99.90;;;;;;5129664;27;20043;-80
2022/09/25 11:27:12;;;;;;;5.22;1.10;;;17.30;99.90;;;;;;5102340;28;20066;-80
2022/09/25 11:29:49;;;;;;;3.28;0.80;;;17.80;99.90;;;;;;5127160;27;20050;-80
2022/09/25 11:32:24;;;;;;;3.67;1.00;;;18.00;92.60;;;;;;5129338;27;20049;-81
2022/09/25 11:35:05;;;;;;;3.83;0.60;;;18.10;21.60;;;;;;5116326;27;20115;-80
2022/09/25 11:38:12;;;;;;;6.28;1.13;;;17.90;1.00;;;;;;5109023;27;20055;-80
2022/09/25 11:41:11;;;;;;;5.22;1.17;;;17.50;1.00;;;;;;5074765;27;20142;-80
2022/09/25 11:44:00;;;;;;;3.65;0.60;;;17.30;1.00;;;;;;5108417;28;20118;-81
2022/09/25 11:46:47;;;;;;;3.08;0.77;;;17.20;27.00;;;;;;5111925;27;20126;-80
2022/09/25 11:49:17;;;;;;;4.28;0.80;;;17.30;1.00;;;;;;5111777;27;20506;-81
2022/09/25 11:51:55;;;;;;;2.03;0.70;;;17.50;30.70;;;;;;5112654;27;20051;-81
2022/09/25 11:54:59;;;;;;;4.40;1.00;;;18.10;21.20;;;;;;5098139;27;20070;-81
2022/09/25 11:57:42;;;;;;;4.43;1.27;;;18.70;1.00;;;;;;5113147;27;20072;-81
2022/09/25 12:00:19;;;;;;;2.40;0.68;;;19.60;1.00;;;;;;5130251;27;20079;-82
2022/09/25 12:03:17;;;;;;;3.25;0.50;;;20.40;99.90;;;;;;5112597;27;20067;-81
2022/09/25 12:06:21;;;;;;;1.75;0.47;;;20.10;99.90;;;;;;5106781;28;20057;-81
2022/09/25 12:09:06;;;;;;;1.85;0.60;;;19.40;69.40;;;;;;5128498;27;20496;-81
2022/09/25 12:11:44;;;;;;;5.35;0.75;;;19.90;99.90;;;;;;5122425;27;20051;-81
2022/09/25 12:14:42;;;;;;;2.30;0.50;;;21.60;77.20;;;;;;5097236;28;20048;-81
2022/09/25 12:17:19;;;;;;;2.47;0.40;;;23.60;50.70;;;;;;5098040;28;20176;-82
2022/09/25 12:19:48;;;;;;;2.22;0.50;;;25.10;99.90;;;;;;5129183;28;20051;-83
2022/09/25 12:22:45;;;;;;;1.55;0.40;;;26.40;99.90;;;;;;5094031;28;20047;-82
2022/09/25 12:25:20;;;;;;;2.95;0.45;;;27.00;99.90;;;;;;5127915;28;20070;-82
2022/09/25 12:27:50;;;;;;;0.60;0.20;;;25.50;99.90;;;;;;5128978;28;20081;-82
2022/09/25 12:30:40;;;;;;;1.42;0.30;;;23.00;99.90;;;;;;5127864;28;20046;-82
2022/09/25 12:33:26;;;;;;;2.10;0.47;;;20.60;99.90;;;;;;5042866;28;20087;-82
2022/09/25 12:36:07;;;;;;;1.52;0.40;;;18.50;99.90;;;;;;5109005;28;20047;-81
2022/09/25 12:38:43;;;;;;;1.30;0.70;;;17.30;99.90;;;;;;5117110;28;20547;-81
2022/09/25 12:41:45;;;;;;;4.53;0.57;;;16.40;99.90;;;;;;5127615;28;20132;-82
2022/09/25 12:44:31;;;;;;;2.65;0.50;;;15.80;1.00;;;;;;5055768;28;20137;-81
2022/09/25 12:47:03;;;;;;;2.67;0.70;;;15.40;1.00;;;;;;5112071;28;20047;-81
2022/09/25 12:49:41;;;;;;;2.80;0.90;;;15.20;46.00;;;;;;5111045;28;20058;-81
2022/09/25 12:52:18;;;;;;;4.05;0.60;;;15.20;74.80;;;;;;5123175;27;20089;-81
2022/09/25 12:55:12;;;;;;;1.77;0.60;;;15.20;96.30;;;;;;5104682;27;20376;-81
2022/09/25 12:57:59;;;;;;;2.35;0.82;;;15.20;99.90;;;;;;5119180;27;20399;-81
2022/09/25 13:00:29;;;;;;;3.53;1.00;;;15.60;99.90;;;;;;5115106;27;20057;-81
2022/09/25 13:03:10;;;;;;;2.53;0.90;;;16.40;99.90;;;;;;5132190;27;20045;-81
2022/09/25 13:05:56;;;;;;;1.58;0.45;;;17.00;68.10;;;;;;5126949;27;20047;-81
2022/09/25 13:08:33;;;;;;;2.95;0.40;;;19.00;29.30;;;;;;5109353;27;20055;-81
2022/09/25 13:11:17;;;;;;;2.75;0.65;;;20.90;99.90;;;;;;5132393;27;20058;-81
2022/09/25 13:13:52;;;;;;;2.30;0.40;;;22.30;99.90;;;;;;5114280;27;20134;-81
2022/09/25 13:16:18;;;;;;;3.35;0.60;;;23.90;12.90;;;;;;5108420;28;20086;-82
2022/09/25 13:19:08;;;;;;;2.40;0.30;;;25.20;1.00;;;;;;5108525;27;20047;-82
2022/09/25 13:21:36;;;;;;;2.80;0.40;;;25.70;1.00;;;;;;5094702;28;20101;-81
2022/09/25 13:24:09;;;;;;;1.92;0.40;;;24.30;1.00;;;;;;5129840;27;20136;-81
2022/09/25 13:26:49;;;;;;;2.45;1.20;;;23.10;1.00;;;;;;5111692;27;20400;-81
2022/09/25 13:29:34;;;;;;;2.95;0.90;;;21.80;1.00;;;;;;5094906;28;20159;-81
2022/09/25 13:32:17;;;;;;;5.05;0.60;;;20.60;1.00;;;;;;5098182;27;20122;-80
2022/09/25 13:34:44;;;;;;;2.83;0.70;;;19.60;1.00;;;;;;5094660;28;20081;-81
2022/09/25 13:37:12;;;;;;;1.58;0.50;;;19.30;1.00;;;;;;5112685;28;20507;-81